createdAt,value
2023-11-28T00:01:49.941Z,3.03
2023-11-28T00:04:17.517Z,3.20
2023-11-28T00:06:46.316Z,3.30
2023-11-28T00:09:13.901Z,6.23
2023-11-28T00:11:41.403Z,3.40
2023-11-28T00:14:09.231Z,3.20
2023-11-28T00:16:36.846Z,3.10
2023-11-28T00:19:04.538Z,2.97
2023-11-28T00:21:32.082Z,3.30
2023-11-28T00:24:03.077Z,3.53
2023-11-28T00:26:31.262Z,2.93
2023-11-28T00:28:58.782Z,3.17
2023-11-28T00:31:26.700Z,3.00
2023-11-28T00:33:54.218Z,2.87
2023-11-28T00:36:21.316Z,3.37
2023-11-28T00:38:48.805Z,2.97
2023-11-28T00:41:17.712Z,3.17
2023-11-28T00:43:45.641Z,3.40
2023-11-28T00:46:15.059Z,3.03
2023-11-28T00:48:42.995Z,2.47
2023-11-28T00:51:10.511Z,2.50
2023-11-28T00:53:38.188Z,2.20
2023-11-28T00:56:06.057Z,2.67
2023-11-28T00:58:34.961Z,2.77
2023-11-28T01:01:02.631Z,2.50
2023-11-28T01:03:30.165Z,2.20
2023-11-28T01:05:57.615Z,2.17
2023-11-28T01:08:25.088Z,2.10
2023-11-28T01:10:52.642Z,1.87
2023-11-28T01:13:20.856Z,1.80
2023-11-28T01:15:49.813Z,1.67
2023-11-28T01:18:17.322Z,1.20
2023-11-28T01:20:45.337Z,1.77
2023-11-28T01:23:12.775Z,2.60
2023-11-28T01:25:40.217Z,1.70
2023-11-28T01:28:07.691Z,1.27
2023-11-28T01:30:35.288Z,1.40
2023-11-28T01:33:04.365Z,1.40
2023-11-28T01:35:31.815Z,1.20
2023-11-28T01:38:00.461Z,1.20
2023-11-28T01:40:28.441Z,1.13
2023-11-28T01:42:55.951Z,1.13
2023-11-28T01:45:23.434Z,6.43
2023-11-28T01:47:53.464Z,1.20
2023-11-28T01:50:22.680Z,1.30
2023-11-28T01:52:50.635Z,1.20
2023-11-28T01:55:19.330Z,1.00
2023-11-28T01:57:47.081Z,1.47
2023-11-28T02:00:15.095Z,1.20
2023-11-28T02:02:42.850Z,1.30
2023-11-28T02:05:10.797Z,1.30
2023-11-28T02:07:39.711Z,1.10
2023-11-28T02:10:07.554Z,1.20
2023-11-28T02:12:35.249Z,1.20
2023-11-28T02:15:04.113Z,1.30
2023-11-28T02:17:31.650Z,1.70
2023-11-28T02:19:59.201Z,1.10
2023-11-28T02:22:27.261Z,1.30
2023-11-28T02:24:58.673Z,1.10
2023-11-28T02:27:27.457Z,1.23
2023-11-28T02:29:55.049Z,1.90
2023-11-28T02:32:22.914Z,1.10
2023-11-28T02:34:50.513Z,1.23
2023-11-28T02:37:18.005Z,1.10
2023-11-28T02:39:45.479Z,1.00
2023-11-28T02:42:13.048Z,1.10
2023-11-28T02:44:41.842Z,1.00
2023-11-28T02:47:09.438Z,0.90
2023-11-28T02:49:37.026Z,0.90
2023-11-28T02:52:04.668Z,0.90
2023-11-28T02:54:32.132Z,1.37
2023-11-28T02:56:59.576Z,1.13
2023-11-28T02:59:27.198Z,0.90
2023-11-28T03:01:56.349Z,1.10
2023-11-28T03:04:24.002Z,1.00
2023-11-28T03:06:51.550Z,1.30
2023-11-28T03:09:19.018Z,1.07
2023-11-28T03:11:46.450Z,1.10
2023-11-28T03:14:13.959Z,1.03
2023-11-28T03:16:41.571Z,1.37
2023-11-28T03:19:12.219Z,1.10
2023-11-28T03:21:40.433Z,1.10
2023-11-28T03:24:08.968Z,1.30
2023-11-28T03:26:36.463Z,1.30
2023-11-28T03:29:04.271Z,1.07
2023-11-28T03:31:31.858Z,1.10
2023-11-28T03:33:59.514Z,1.20
2023-11-28T03:36:28.646Z,1.27
2023-11-28T03:38:56.208Z,1.10
2023-11-28T03:41:23.656Z,1.30
2023-11-28T03:43:51.547Z,1.30
2023-11-28T03:46:19.163Z,1.60
2023-11-28T03:48:46.634Z,1.30
2023-11-28T03:51:14.099Z,1.40
2023-11-28T03:53:42.924Z,4.40
2023-11-28T03:56:11.047Z,1.60
2023-11-28T03:58:38.568Z,1.40
2023-11-28T04:01:06.248Z,1.60
2023-11-28T04:03:34.097Z,1.70
2023-11-28T04:06:01.642Z,1.50
2023-11-28T04:08:29.159Z,1.80
2023-11-28T04:10:57.997Z,2.60
2023-11-28T04:13:25.549Z,1.70
2023-11-28T04:15:52.952Z,2.00
2023-11-28T04:18:20.620Z,1.93
2023-11-28T04:20:48.148Z,2.10
2023-11-28T04:23:15.662Z,2.03
2023-11-28T04:25:43.259Z,2.10
2023-11-28T04:28:12.095Z,2.00
2023-11-28T04:30:39.632Z,2.20
2023-11-28T04:33:07.095Z,2.10
2023-11-28T04:35:34.568Z,2.40
2023-11-28T04:38:02.024Z,2.57
2023-11-28T04:40:29.530Z,2.60
2023-11-28T04:42:56.995Z,2.80
2023-11-28T04:45:25.813Z,3.60
2023-11-28T04:47:53.323Z,3.30
2023-11-28T04:50:20.784Z,4.20
2023-11-28T04:52:48.221Z,4.50
2023-11-28T04:55:15.781Z,4.70
2023-11-28T04:57:44.413Z,4.17
2023-11-28T05:00:12.303Z,3.93
2023-11-28T05:02:41.181Z,3.60
2023-11-28T05:05:09.118Z,3.90
2023-11-28T05:07:36.704Z,3.60
2023-11-28T05:10:05.075Z,3.17
2023-11-28T05:12:33.194Z,3.47
2023-11-28T05:15:00.690Z,3.33
2023-11-28T05:17:28.643Z,3.40
2023-11-28T05:19:57.543Z,3.40
2023-11-28T05:22:25.302Z,2.83
2023-11-28T05:24:52.740Z,5.90
2023-11-28T05:27:20.146Z,3.20
2023-11-28T05:29:48.556Z,3.10
2023-11-28T05:32:16.009Z,3.00
2023-11-28T05:34:43.523Z,3.80
2023-11-28T05:37:12.412Z,4.03
2023-11-28T05:39:39.888Z,4.20
2023-11-28T05:42:07.681Z,3.67
2023-11-28T05:44:35.149Z,3.67
2023-11-28T05:47:02.681Z,4.20
2023-11-28T05:49:30.094Z,4.33
2023-11-28T05:51:57.471Z,4.60
2023-11-28T05:54:26.287Z,4.47
2023-11-28T05:56:53.841Z,4.43
2023-11-28T05:59:21.357Z,4.20
2023-11-28T06:01:59.863Z,4.90
2023-11-28T06:04:27.447Z,4.63
2023-11-28T06:06:54.897Z,4.70
2023-11-28T06:09:24.627Z,4.40
2023-11-28T06:11:53.457Z,5.07
2023-11-28T06:14:21.460Z,5.60
2023-11-28T06:16:48.986Z,5.90
2023-11-28T06:19:16.891Z,6.00
2023-11-28T06:21:47.311Z,7.03
2023-11-28T06:24:15.007Z,6.60
2023-11-28T06:26:42.515Z,7.40
2023-11-28T06:29:11.361Z,8.40
2023-11-28T06:31:39.111Z,8.77
2023-11-28T06:34:06.790Z,9.67
2023-11-28T06:36:35.903Z,10.60
2023-11-28T06:39:03.384Z,9.40
2023-11-28T06:41:30.858Z,8.50
2023-11-28T06:44:01.566Z,8.60
2023-11-28T06:46:32.510Z,8.20
2023-11-28T06:49:00.179Z,7.40
2023-11-28T06:51:28.593Z,8.50
2023-11-28T06:53:56.255Z,8.40
2023-11-28T06:56:23.686Z,7.90
2023-11-28T06:58:51.132Z,8.00
2023-11-28T07:01:19.496Z,9.30
2023-11-28T07:03:48.376Z,9.73
2023-11-28T07:06:15.841Z,10.07
2023-11-28T07:08:43.281Z,10.23
2023-11-28T07:11:17.332Z,10.80
2023-11-28T07:13:44.757Z,10.83
2023-11-28T07:16:12.383Z,9.60
2023-11-28T07:18:40.062Z,11.97
2023-11-28T07:21:10.002Z,12.87
2023-11-28T07:23:38.150Z,14.73
2023-11-28T07:26:06.131Z,13.47
2023-11-28T07:28:33.590Z,15.27
2023-11-28T07:31:01.404Z,13.17
2023-11-28T07:33:28.946Z,13.40
2023-11-28T07:35:56.535Z,15.30
2023-11-28T07:38:26.160Z,13.40
2023-11-28T07:40:53.819Z,15.40
2023-11-28T07:43:21.422Z,17.93
2023-11-28T07:45:48.904Z,14.50
2023-11-28T07:48:16.368Z,13.80
2023-11-28T07:50:43.788Z,16.07
2023-11-28T07:53:11.328Z,15.57
2023-11-28T07:55:40.560Z,16.23
2023-11-28T07:58:08.317Z,14.97
2023-11-28T08:00:35.798Z,12.57
2023-11-28T08:03:04.221Z,14.00
2023-11-28T08:05:31.921Z,12.90
2023-11-28T08:07:59.473Z,13.23
2023-11-28T08:10:26.930Z,13.23
2023-11-28T08:12:55.808Z,11.23
2023-11-28T08:15:23.286Z,11.67
2023-11-28T08:17:51.484Z,12.40
2023-11-28T08:20:19.017Z,10.73
2023-11-28T08:22:46.847Z,10.60
2023-11-28T08:25:14.293Z,11.23
2023-11-28T08:27:41.827Z,11.27
2023-11-28T08:30:12.038Z,10.43
2023-11-28T08:32:39.856Z,10.77
2023-11-28T08:35:08.268Z,12.43
2023-11-28T08:37:36.153Z,8.90
2023-11-28T08:40:04.424Z,13.00
2023-11-28T08:42:31.904Z,10.20
2023-11-28T08:44:59.360Z,10.10
2023-11-28T08:47:28.183Z,8.33
2023-11-28T08:49:56.104Z,7.20
2023-11-28T08:52:24.894Z,6.40
2023-11-28T08:54:52.361Z,6.77
2023-11-28T08:57:20.167Z,6.93
2023-11-28T08:59:47.677Z,7.03
2023-11-28T09:02:15.345Z,6.43
2023-11-28T09:04:44.278Z,8.43
2023-11-28T09:07:12.029Z,8.17
2023-11-28T09:09:39.465Z,7.20
2023-11-28T09:12:07.463Z,8.60
2023-11-28T09:14:44.551Z,8.40
2023-11-28T09:17:18.564Z,6.13
2023-11-28T09:19:47.484Z,5.73
2023-11-28T09:22:14.938Z,7.50
2023-11-28T09:24:43.771Z,5.30
2023-11-28T09:27:11.681Z,5.53
2023-11-28T09:29:39.243Z,5.50
2023-11-28T09:32:07.278Z,6.00
2023-11-28T09:34:34.797Z,6.73
2023-11-28T09:37:04.945Z,6.17
2023-11-28T09:39:32.659Z,7.00
2023-11-28T09:42:00.878Z,5.53
2023-11-28T09:44:30.455Z,7.33
2023-11-28T09:46:58.757Z,6.47
2023-11-28T09:49:27.500Z,5.23
2023-11-28T09:51:57.299Z,4.67
2023-11-28T09:54:26.655Z,4.33
2023-11-28T09:56:54.688Z,4.77
2023-11-28T09:59:22.513Z,4.37
2023-11-28T10:01:51.030Z,4.50
2023-11-28T10:04:22.923Z,4.53
2023-11-28T10:06:51.993Z,4.40
2023-11-28T10:09:20.198Z,5.00
2023-11-28T10:11:49.526Z,5.43
2023-11-28T10:14:17.015Z,4.43
2023-11-28T10:16:44.241Z,4.50
2023-11-28T10:19:11.897Z,4.40
2023-11-28T10:21:39.906Z,4.30
2023-11-28T10:24:08.441Z,4.70
2023-11-28T10:26:35.888Z,4.60
2023-11-28T10:29:06.564Z,4.70
2023-11-28T10:31:37.022Z,4.47
2023-11-28T10:34:09.389Z,4.53
2023-11-28T10:36:46.531Z,5.27
2023-11-28T10:39:16.802Z,4.60
2023-11-28T10:41:44.414Z,4.30
2023-11-28T10:44:13.312Z,5.70
2023-11-28T10:46:41.662Z,4.80
2023-11-28T10:49:09.497Z,4.10
2023-11-28T10:51:38.222Z,4.37
2023-11-28T10:54:08.222Z,8.80
2023-11-28T10:56:39.680Z,5.13
2023-11-28T10:59:08.761Z,4.50
2023-11-28T11:01:39.997Z,4.77
2023-11-28T11:04:07.433Z,6.20
2023-11-28T11:06:34.884Z,4.60
2023-11-28T11:09:02.840Z,4.77
2023-11-28T11:11:30.521Z,4.87
2023-11-28T11:14:03.377Z,4.90
2023-11-28T11:16:34.844Z,5.03
2023-11-28T11:19:04.523Z,4.17
2023-11-28T11:21:33.143Z,6.40
2023-11-28T11:24:01.250Z,4.70
2023-11-28T11:26:29.732Z,4.47
2023-11-28T11:28:57.755Z,4.40
2023-11-28T11:31:25.252Z,7.10
2023-11-28T11:33:52.859Z,4.10
2023-11-28T11:36:21.778Z,5.03
2023-11-28T11:38:49.493Z,4.20
2023-11-28T11:41:17.439Z,4.13
2023-11-28T11:43:46.218Z,3.80
2023-11-28T11:46:14.872Z,3.30
2023-11-28T11:48:42.746Z,3.40
2023-11-28T11:51:11.013Z,4.70
2023-11-28T11:53:41.016Z,4.37
2023-11-28T11:56:09.419Z,3.67
2023-11-28T11:58:36.995Z,3.40
2023-11-28T12:01:05.132Z,6.60
2023-11-28T12:03:32.780Z,5.00
2023-11-28T12:06:00.500Z,8.90
2023-11-28T12:08:29.007Z,3.30
2023-11-28T12:11:07.508Z,3.53
2023-11-28T12:13:37.367Z,3.53
2023-11-28T12:16:05.299Z,3.30
2023-11-28T12:18:32.855Z,3.23
2023-11-28T12:21:00.412Z,3.53
2023-11-28T12:23:28.292Z,3.80
2023-11-28T12:25:56.708Z,3.60
2023-11-28T12:28:26.161Z,3.40
2023-11-28T12:30:53.719Z,3.23
2023-11-28T12:33:22.167Z,2.80
2023-11-28T12:35:50.184Z,2.87
2023-11-28T12:38:19.175Z,3.07
2023-11-28T12:40:47.586Z,2.90
2023-11-28T12:43:24.804Z,2.80
2023-11-28T12:45:58.332Z,2.20
2023-11-28T12:48:26.606Z,2.83
2023-11-28T12:50:54.178Z,2.70
2023-11-28T12:53:22.538Z,2.60
2023-11-28T12:55:50.046Z,2.20
2023-11-28T12:58:20.337Z,3.03
2023-11-28T13:00:49.122Z,7.63
2023-11-28T13:03:16.650Z,3.10
2023-11-28T13:05:44.428Z,2.43
2023-11-28T13:08:11.872Z,3.10
2023-11-28T13:10:39.660Z,2.90
2023-11-28T13:13:12.479Z,2.70
2023-11-28T13:15:44.979Z,2.77
2023-11-28T13:18:13.936Z,2.70
2023-11-28T13:20:41.434Z,3.03
2023-11-28T13:23:08.939Z,2.63
2023-11-28T13:25:36.378Z,2.97
2023-11-28T13:28:04.124Z,3.00
2023-11-28T13:30:31.581Z,2.80
2023-11-28T13:32:59.961Z,3.30
2023-11-28T13:35:30.662Z,3.37
2023-11-28T13:37:58.272Z,2.80
2023-11-28T13:40:25.758Z,2.43
2023-11-28T13:42:53.314Z,3.20
2023-11-28T13:45:22.970Z,2.43
2023-11-28T13:47:50.501Z,2.80
2023-11-28T13:50:18.084Z,5.43
2023-11-28T13:52:48.895Z,3.20
2023-11-28T13:55:17.596Z,3.57
2023-11-28T13:57:47.112Z,3.47
2023-11-28T14:00:18.500Z,3.90
2023-11-28T14:02:46.377Z,3.53
2023-11-28T14:05:13.954Z,5.97
2023-11-28T14:07:41.675Z,3.87
2023-11-28T14:10:10.855Z,3.43
2023-11-28T14:12:38.422Z,3.93
2023-11-28T14:15:07.281Z,3.90
2023-11-28T14:17:35.601Z,4.23
2023-11-28T14:20:04.301Z,3.80
2023-11-28T14:22:31.799Z,3.67
2023-11-28T14:24:59.226Z,3.90
2023-11-28T14:27:27.995Z,4.47
2023-11-28T14:29:55.411Z,4.03
2023-11-28T14:32:22.976Z,5.23
2023-11-28T14:34:51.083Z,3.63
2023-11-28T14:37:18.577Z,3.60
2023-11-28T14:39:47.708Z,3.80
2023-11-28T14:42:15.237Z,3.17
2023-11-28T14:44:44.014Z,3.43
2023-11-28T14:47:11.608Z,3.73
2023-11-28T14:49:39.672Z,3.60
2023-11-28T14:52:07.333Z,4.50
2023-11-28T14:54:34.719Z,3.90
2023-11-28T14:57:02.279Z,5.90
2023-11-28T14:59:29.785Z,6.10
2023-11-28T15:01:58.860Z,7.37
2023-11-28T15:04:27.816Z,6.70
2023-11-28T15:06:55.350Z,8.40
2023-11-28T15:09:24.883Z,5.13
2023-11-28T15:11:52.452Z,4.93
2023-11-28T15:14:20.221Z,9.00
2023-11-28T15:16:47.957Z,8.00
2023-11-28T15:19:18.283Z,7.10
2023-11-28T15:21:45.808Z,6.03
2023-11-28T15:24:13.338Z,4.90
2023-11-28T15:26:40.988Z,3.80
2023-11-28T15:29:10.952Z,4.43
2023-11-28T15:31:40.091Z,5.30
2023-11-28T15:34:07.760Z,4.70
2023-11-28T15:36:37.467Z,4.90
2023-11-28T15:39:14.132Z,5.47
2023-11-28T15:41:41.602Z,5.13
2023-11-28T15:44:10.242Z,7.10
2023-11-28T15:46:37.846Z,4.33
2023-11-28T15:49:05.607Z,3.70
2023-11-28T15:51:39.731Z,4.23
2023-11-28T15:54:09.706Z,8.53
2023-11-28T15:56:37.198Z,6.87
2023-11-28T15:59:05.152Z,6.73
2023-11-28T16:01:32.880Z,6.83
2023-11-28T16:04:00.540Z,4.80
2023-11-28T16:06:28.421Z,4.80
2023-11-28T16:08:55.851Z,6.83
2023-11-28T16:11:25.143Z,5.43
2023-11-28T16:13:53.121Z,6.60
2023-11-28T16:16:20.598Z,6.90
2023-11-28T16:18:48.323Z,7.10
2023-11-28T16:21:20.849Z,5.83
2023-11-28T16:23:48.300Z,4.27
2023-11-28T16:26:21.408Z,5.10
2023-11-28T16:28:50.975Z,7.10
2023-11-28T16:31:18.967Z,5.10
2023-11-28T16:33:46.409Z,4.43
2023-11-28T16:36:14.030Z,11.40
2023-11-28T16:38:42.129Z,5.10
2023-11-28T16:41:09.587Z,6.23
2023-11-28T16:43:38.038Z,4.70
2023-11-28T16:46:07.499Z,8.33
2023-11-28T16:48:34.990Z,4.00
2023-11-28T16:51:02.500Z,5.47
2023-11-28T16:53:30.542Z,6.87
2023-11-28T16:55:58.018Z,9.60
2023-11-28T16:58:25.456Z,10.53
2023-11-28T17:00:53.146Z,9.53
2023-11-28T17:03:22.113Z,9.47
2023-11-28T17:05:49.643Z,9.57
2023-11-28T17:08:17.202Z,12.10
2023-11-28T17:10:44.913Z,11.50
2023-11-28T17:13:12.355Z,8.37
2023-11-28T17:15:40.678Z,10.83
2023-11-28T17:18:08.405Z,7.23
2023-11-28T17:20:37.248Z,15.73
2023-11-28T17:23:04.727Z,9.50
2023-11-28T17:25:32.185Z,8.80
2023-11-28T17:27:59.649Z,7.53
2023-11-28T17:30:27.114Z,10.50
2023-11-28T17:32:54.572Z,5.60
2023-11-28T17:35:22.035Z,10.70
2023-11-28T17:37:51.085Z,9.60
2023-11-28T17:40:21.491Z,12.87
2023-11-28T17:42:50.479Z,6.70
2023-11-28T17:45:18.040Z,9.53
2023-11-28T17:47:47.610Z,9.17
2023-11-28T17:50:15.173Z,8.67
2023-11-28T17:52:42.613Z,9.67
2023-11-28T17:55:12.703Z,8.87
2023-11-28T17:57:41.235Z,6.00
2023-11-28T18:00:09.206Z,5.40
2023-11-28T18:02:36.675Z,5.33
2023-11-28T18:05:05.063Z,5.50
2023-11-28T18:07:32.587Z,7.37
2023-11-28T18:10:00.018Z,6.17
2023-11-28T18:12:28.771Z,11.10
2023-11-28T18:14:56.314Z,12.00
2023-11-28T18:17:24.765Z,9.00
2023-11-28T18:19:54.605Z,12.53
2023-11-28T18:22:22.232Z,14.47
2023-11-28T18:24:51.945Z,13.50
2023-11-28T18:27:19.447Z,9.30
2023-11-28T18:29:48.214Z,8.37
2023-11-28T18:32:16.187Z,9.07
2023-11-28T18:34:47.494Z,7.30
2023-11-28T18:37:16.583Z,10.60
2023-11-28T18:39:44.330Z,10.27
2023-11-28T18:42:13.095Z,6.70
2023-11-28T18:44:41.050Z,7.03
2023-11-28T18:47:09.909Z,7.20
2023-11-28T18:49:37.575Z,6.93
2023-11-28T18:52:05.105Z,9.53
2023-11-28T18:54:32.556Z,6.77
2023-11-28T18:57:00.618Z,5.23
2023-11-28T18:59:28.413Z,6.50
2023-11-28T19:01:56.342Z,6.27
2023-11-28T19:04:25.180Z,5.93
2023-11-28T19:06:52.660Z,6.70
2023-11-28T19:09:20.129Z,5.00
2023-11-28T19:11:47.580Z,8.13
2023-11-28T19:14:15.039Z,5.60
2023-11-28T19:16:42.469Z,6.60
2023-11-28T19:19:10.060Z,8.53
2023-11-28T19:21:43.014Z,6.63
2023-11-28T19:24:10.442Z,5.63
2023-11-28T19:26:38.282Z,5.47
2023-11-28T19:29:05.864Z,5.63
2023-11-28T19:31:33.370Z,7.30
2023-11-28T19:34:00.808Z,6.40
2023-11-28T19:36:29.011Z,8.33
2023-11-28T19:38:57.829Z,8.00
2023-11-28T19:41:25.382Z,8.70
2023-11-28T19:43:53.325Z,11.30
2023-11-28T19:46:20.885Z,13.23
2023-11-28T19:48:48.392Z,9.50
2023-11-28T19:51:15.992Z,11.67
2023-11-28T19:53:44.146Z,13.40
2023-11-28T19:56:13.123Z,9.70
2023-11-28T19:58:40.928Z,7.17
2023-11-28T20:01:09.082Z,6.43
2023-11-28T20:03:38.882Z,7.03
2023-11-28T20:06:07.460Z,9.27
2023-11-28T20:08:35.389Z,7.10
2023-11-28T20:11:02.886Z,7.23
2023-11-28T20:13:31.704Z,10.73
2023-11-28T20:16:02.519Z,8.37
2023-11-28T20:18:31.327Z,10.03
2023-11-28T20:20:58.844Z,10.60
2023-11-28T20:23:26.274Z,9.97
2023-11-28T20:25:54.997Z,9.20
2023-11-28T20:28:23.200Z,9.43
2023-11-28T20:30:52.240Z,11.50
2023-11-28T20:33:19.709Z,10.90
2023-11-28T20:35:48.433Z,10.40
2023-11-28T20:38:15.930Z,11.20
2023-11-28T20:40:43.430Z,8.67
2023-11-28T20:43:10.877Z,12.00
2023-11-28T20:45:39.404Z,9.40
2023-11-28T20:48:09.460Z,9.97
2023-11-28T20:50:36.978Z,11.23
2023-11-28T20:53:04.593Z,10.17
2023-11-28T20:55:35.870Z,11.83
2023-11-28T20:58:03.399Z,9.33
2023-11-28T21:00:31.040Z,10.90
2023-11-28T21:02:58.547Z,11.00
2023-11-28T21:05:27.421Z,13.93
2023-11-28T21:07:54.924Z,11.47
2023-11-28T21:10:22.381Z,10.27
2023-11-28T21:12:52.181Z,11.73
2023-11-28T21:15:19.786Z,10.30
2023-11-28T21:17:47.328Z,9.23
2023-11-28T21:20:15.049Z,13.17
2023-11-28T21:22:43.894Z,10.17
2023-11-28T21:25:11.433Z,8.80
2023-11-28T21:27:38.931Z,10.03
2023-11-28T21:30:07.553Z,8.43
2023-11-28T21:32:35.376Z,9.73
2023-11-28T21:35:04.384Z,10.20
2023-11-28T21:37:31.899Z,9.53
2023-11-28T21:40:00.694Z,10.43
2023-11-28T21:42:28.127Z,10.20
2023-11-28T21:44:55.561Z,9.70
2023-11-28T21:47:25.238Z,11.70
2023-11-28T21:49:54.267Z,10.70
2023-11-28T21:52:22.001Z,10.10
2023-11-28T21:54:49.638Z,9.83
2023-11-28T21:57:18.643Z,11.10
2023-11-28T21:59:46.806Z,11.40
2023-11-28T22:02:14.601Z,11.00
2023-11-28T22:04:42.336Z,12.23
2023-11-28T22:07:09.851Z,12.67
2023-11-28T22:09:37.265Z,10.77
2023-11-28T22:12:04.895Z,10.30
2023-11-28T22:14:34.886Z,10.67
2023-11-28T22:17:03.340Z,10.40
2023-11-28T22:19:30.821Z,9.57
2023-11-28T22:21:58.282Z,9.20
2023-11-28T22:24:25.722Z,8.83
2023-11-28T22:26:53.251Z,8.50
2023-11-28T22:29:20.847Z,7.27
2023-11-28T22:31:49.726Z,8.40
2023-11-28T22:34:17.219Z,7.40
2023-11-28T22:36:44.661Z,9.57
2023-11-28T22:39:12.749Z,8.97
2023-11-28T22:41:40.193Z,8.33
2023-11-28T22:44:07.986Z,7.77
2023-11-28T22:46:35.861Z,7.43
2023-11-28T22:49:04.887Z,7.70
2023-11-28T22:51:32.353Z,8.13
2023-11-28T22:54:00.247Z,8.67
2023-11-28T22:56:27.714Z,8.90
2023-11-28T22:58:55.126Z,7.90
2023-11-28T23:01:23.301Z,9.00
2023-11-28T23:03:51.210Z,7.73
2023-11-28T23:06:20.155Z,7.47
2023-11-28T23:08:47.648Z,8.53
2023-11-28T23:11:15.456Z,8.70
2023-11-28T23:13:42.929Z,7.57
2023-11-28T23:16:12.257Z,5.87
2023-11-28T23:18:39.853Z,6.57
2023-11-28T23:21:07.862Z,5.47
2023-11-28T23:23:37.593Z,8.57
2023-11-28T23:26:05.364Z,6.10
2023-11-28T23:28:33.172Z,6.93
2023-11-28T23:31:02.544Z,7.33
2023-11-28T23:33:30.388Z,7.30
2023-11-28T23:35:58.065Z,6.80
2023-11-28T23:38:26.191Z,6.77
2023-11-28T23:40:55.083Z,7.30
2023-11-28T23:43:22.673Z,6.80
2023-11-28T23:45:50.148Z,7.40
2023-11-28T23:48:17.678Z,7.00
2023-11-28T23:50:45.184Z,8.73
2023-11-28T23:53:12.729Z,6.70
2023-11-28T23:55:40.196Z,7.33
2023-11-28T23:58:09.105Z,7.30
